createdAt,value
2023-05-16T04:15:09.737Z,98.47
2023-05-16T04:16:16.783Z,98.68
2023-05-16T04:17:09.837Z,98.58
2023-05-16T04:18:09.746Z,98.47
2023-05-16T04:19:09.697Z,98.37
2023-05-16T04:20:09.663Z,98.47
2023-05-16T04:21:09.708Z,98.58
2023-05-16T04:22:09.663Z,98.68
2023-05-16T04:23:09.661Z,98.79
2023-05-16T04:24:09.617Z,98.68
2023-05-16T04:25:09.617Z,98.68
2023-05-16T04:26:09.600Z,98.47
2023-05-16T04:27:09.577Z,98.47
2023-05-16T04:28:09.561Z,98.37
2023-05-16T04:29:09.563Z,98.37
2023-05-16T04:30:09.545Z,98.37
2023-05-16T04:31:09.593Z,98.37
2023-05-16T04:32:09.521Z,98.37
2023-05-16T04:33:09.587Z,98.37
2023-05-16T04:34:09.487Z,98.47
2023-05-16T04:35:09.511Z,98.37
2023-05-16T04:36:09.478Z,98.37
2023-05-16T04:37:09.478Z,98.47
2023-05-16T04:38:09.435Z,98.27
2023-05-16T04:39:09.430Z,98.16
2023-05-16T04:40:09.419Z,98.16
2023-05-16T04:41:09.401Z,98.06
2023-05-16T04:42:09.414Z,97.86
2023-05-16T04:43:09.413Z,97.96
2023-05-16T04:44:09.354Z,97.96
2023-05-16T04:45:09.365Z,97.50
2023-05-16T04:46:09.360Z,96.99
2023-05-16T04:47:09.341Z,96.89
2023-05-16T04:48:09.328Z,96.89
2023-05-16T04:49:09.311Z,96.64
2023-05-16T04:50:09.301Z,96.43
2023-05-16T04:51:09.273Z,95.71
2023-05-16T04:52:09.315Z,95.40
2023-05-16T04:53:09.282Z,95.71
2023-05-16T04:54:09.238Z,95.92
2023-05-16T04:55:09.244Z,95.71
2023-05-16T04:56:09.216Z,95.71
2023-05-16T04:57:09.206Z,95.81
2023-05-16T04:58:09.178Z,95.96
2023-05-16T04:59:09.190Z,96.02
2023-05-16T05:00:09.173Z,95.92
2023-05-16T05:01:09.201Z,95.81
2023-05-16T05:02:09.156Z,95.81
2023-05-16T05:03:09.184Z,96.02
2023-05-16T05:04:09.137Z,95.92
2023-05-16T05:05:09.166Z,95.61
2023-05-16T05:06:09.074Z,95.61
2023-05-16T05:07:09.070Z,95.40
2023-05-16T05:08:09.060Z,95.20
2023-05-16T05:09:09.075Z,94.89
2023-05-16T05:10:09.036Z,94.48
2023-05-16T05:11:09.014Z,94.89
2023-05-16T05:12:09.016Z,94.68
2023-05-16T05:13:09.058Z,94.27
2023-05-16T05:14:08.977Z,94.07
2023-05-16T05:15:08.987Z,94.37
2023-05-16T05:16:08.956Z,94.07
2023-05-16T05:17:09.010Z,93.65
2023-05-16T05:18:09.050Z,93.76
2023-05-16T05:19:08.958Z,93.82
2023-05-16T05:20:08.885Z,93.40
2023-05-16T05:21:08.884Z,93.61
2023-05-16T05:22:08.875Z,93.40
2023-05-16T05:23:08.854Z,93.71
2023-05-16T05:24:08.845Z,93.82
2023-05-16T05:25:08.840Z,93.77
2023-05-16T05:26:08.806Z,93.57
2023-05-16T05:27:08.817Z,93.46
2023-05-16T05:28:08.795Z,92.85
2023-05-16T05:29:08.794Z,92.33
2023-05-16T05:30:08.768Z,91.99
2023-05-16T05:31:08.785Z,91.47
2023-05-16T05:32:08.869Z,91.41
2023-05-16T05:33:08.760Z,91.93
2023-05-16T05:34:08.712Z,91.93
2023-05-16T05:35:08.739Z,92.03
2023-05-16T05:36:08.694Z,92.33
2023-05-16T05:37:08.697Z,92.13
2023-05-16T05:38:08.655Z,91.72
2023-05-16T05:39:08.645Z,91.72
2023-05-16T05:40:08.628Z,91.99
2023-05-16T05:41:08.630Z,91.88
2023-05-16T05:42:08.619Z,91.16
2023-05-16T05:43:08.593Z,91.47
2023-05-16T05:44:08.603Z,90.55
2023-05-16T05:45:08.909Z,90.85
2023-05-16T05:46:08.633Z,90.65
2023-05-16T05:47:08.540Z,90.34
2023-05-16T05:48:08.557Z,90.55
2023-05-16T05:49:08.520Z,90.75
2023-05-16T05:50:08.528Z,90.81
2023-05-16T05:51:08.489Z,90.91
2023-05-16T05:52:08.487Z,90.61
2023-05-16T05:53:08.458Z,89.89
2023-05-16T05:54:08.457Z,89.99
2023-05-16T05:55:08.465Z,90.09
2023-05-16T05:56:08.451Z,89.58
2023-05-16T05:57:08.422Z,90.09
2023-05-16T05:58:08.401Z,89.89
2023-05-16T05:59:08.398Z,89.69
2023-05-16T06:00:08.398Z,89.43
2023-05-16T06:01:08.368Z,89.54
2023-05-16T06:02:08.470Z,89.64
2023-05-16T06:03:08.375Z,89.54
2023-05-16T06:04:08.326Z,89.23
2023-05-16T06:05:08.393Z,88.51
2023-05-16T06:06:08.311Z,88.92
2023-05-16T06:07:08.298Z,89.33
2023-05-16T06:08:08.278Z,89.90
2023-05-16T06:09:08.306Z,89.87
2023-05-16T06:10:08.290Z,89.36
2023-05-16T06:11:08.242Z,88.53
2023-05-16T06:12:08.258Z,89.25
2023-05-16T06:13:08.222Z,89.11
2023-05-16T06:14:08.223Z,87.20
2023-05-16T06:15:08.191Z,87.20
2023-05-16T06:16:09.460Z,88.49
2023-05-16T06:17:08.277Z,86.04
2023-05-16T06:18:08.178Z,85.99
2023-05-16T06:19:08.229Z,85.99
2023-05-16T06:20:08.123Z,85.93
2023-05-16T06:21:08.113Z,88.82
2023-05-16T06:22:08.093Z,84.99
2023-05-16T06:23:08.085Z,85.91
2023-05-16T06:24:08.164Z,86.04
2023-05-16T06:25:08.067Z,83.59
2023-05-16T06:26:08.048Z,85.53
2023-05-16T06:27:08.039Z,83.11
2023-05-16T06:28:08.031Z,82.54
2023-05-16T06:29:08.035Z,82.48
2023-05-16T06:30:07.988Z,83.74
2023-05-16T06:31:08.029Z,84.87
2023-05-16T06:32:07.957Z,84.25
2023-05-16T06:33:08.027Z,85.85
2023-05-16T06:34:07.932Z,82.89
2023-05-16T06:35:07.938Z,84.48
2023-05-16T06:36:07.905Z,82.23
2023-05-16T06:37:07.921Z,81.93
2023-05-16T06:38:07.895Z,81.72
2023-05-16T06:39:07.889Z,83.05
2023-05-16T06:40:07.863Z,82.34
2023-05-16T06:41:07.856Z,81.24
2023-05-16T06:42:07.845Z,81.21
2023-05-16T06:43:07.840Z,82.03
2023-05-16T06:44:07.803Z,82.60
2023-05-16T06:45:07.800Z,82.87
2023-05-16T06:46:07.846Z,80.28
2023-05-16T06:47:07.806Z,80.38
2023-05-16T06:48:07.799Z,78.23
2023-05-16T06:49:07.741Z,77.97
2023-05-16T06:50:07.734Z,78.88
2023-05-16T06:51:07.728Z,79.23
2023-05-16T06:52:07.710Z,80.05
2023-05-16T06:53:07.712Z,79.84
2023-05-16T06:54:07.684Z,77.39
2023-05-16T06:55:07.684Z,77.83
2023-05-16T06:56:07.652Z,79.57
2023-05-16T06:57:07.677Z,78.75
2023-05-16T06:58:07.623Z,78.55
2023-05-16T06:59:07.649Z,77.83
2023-05-16T07:00:07.601Z,80.11
2023-05-16T07:01:07.635Z,77.25
2023-05-16T07:02:07.604Z,77.66
2023-05-16T07:03:07.716Z,76.60
2023-05-16T07:04:07.691Z,75.89
2023-05-16T07:05:07.542Z,75.68
2023-05-16T07:06:07.531Z,76.87
2023-05-16T07:07:07.509Z,76.67
2023-05-16T07:08:08.027Z,76.22
2023-05-16T07:09:07.493Z,76.84
2023-05-16T07:10:07.470Z,77.41
2023-05-16T07:11:07.490Z,76.46
2023-05-16T07:12:07.441Z,74.18
2023-05-16T07:13:07.469Z,74.76
2023-05-16T07:14:07.418Z,71.43
2023-05-16T07:15:07.432Z,75.47
2023-05-16T07:16:07.423Z,73.71
2023-05-16T07:17:07.491Z,72.75
2023-05-16T07:18:07.453Z,71.97
2023-05-16T07:19:07.390Z,70.68
2023-05-16T07:20:07.359Z,74.32
2023-05-16T07:21:07.340Z,71.97
2023-05-16T07:22:08.006Z,73.80
2023-05-16T07:23:07.309Z,74.48
2023-05-16T07:24:07.307Z,71.50
2023-05-16T07:25:07.286Z,70.79
2023-05-16T07:26:07.264Z,69.94
2023-05-16T07:27:07.277Z,73.26
2023-05-16T07:28:07.258Z,68.55
2023-05-16T07:29:07.242Z,68.58
2023-05-16T07:30:07.233Z,68.17
2023-05-16T07:31:07.205Z,70.98
2023-05-16T07:32:07.235Z,71.22
2023-05-16T07:33:07.223Z,73.23
2023-05-16T07:34:07.175Z,72.89
2023-05-16T07:35:07.161Z,69.63
2023-05-16T07:36:16.194Z,68.51
2023-05-16T07:37:08.116Z,69.42
2023-05-16T07:38:07.100Z,69.22
2023-05-16T07:39:07.143Z,69.83
2023-05-16T07:40:07.082Z,69.66
2023-05-16T07:41:07.076Z,70.89
2023-05-16T07:42:07.100Z,70.78
2023-05-16T07:43:07.090Z,71.09
2023-05-16T07:44:07.038Z,72.11
2023-05-16T07:45:07.020Z,72.82
2023-05-16T07:46:07.038Z,72.21
2023-05-16T07:47:06.992Z,71.63
2023-05-16T07:48:07.011Z,74.05
2023-05-16T07:49:06.963Z,73.64
2023-05-16T07:50:06.945Z,73.13
2023-05-16T07:51:06.952Z,72.41
2023-05-16T07:52:06.985Z,72.00
2023-05-16T07:53:06.919Z,70.89
2023-05-16T07:54:06.917Z,71.60
2023-05-16T07:55:06.908Z,71.29
2023-05-16T07:56:06.862Z,69.79
2023-05-16T07:57:06.889Z,71.29
2023-05-16T07:58:06.851Z,69.76
2023-05-16T07:59:06.888Z,69.32
2023-05-16T08:00:06.829Z,68.07
2023-05-16T08:01:06.809Z,68.07
2023-05-16T08:02:06.853Z,68.17
2023-05-16T08:03:06.962Z,68.04
2023-05-16T08:04:06.764Z,66.50
2023-05-16T08:05:06.827Z,66.94
2023-05-16T08:06:06.927Z,67.93
2023-05-16T08:07:06.748Z,65.80
2023-05-16T08:08:06.714Z,63.86
2023-05-16T08:09:06.697Z,64.70
2023-05-16T08:10:06.714Z,64.22
2023-05-16T08:11:06.681Z,63.75
2023-05-16T08:12:06.658Z,65.45
2023-05-16T08:13:06.656Z,65.52
2023-05-16T08:14:06.638Z,67.43
2023-05-16T08:15:06.624Z,67.57
2023-05-16T08:16:06.655Z,66.92
2023-05-16T08:17:06.598Z,64.15
2023-05-16T08:18:06.632Z,62.52
2023-05-16T08:19:06.644Z,61.83
2023-05-16T08:20:06.591Z,64.04
2023-05-16T08:21:06.606Z,64.76
2023-05-16T08:22:06.526Z,65.44
2023-05-16T08:23:06.545Z,60.69
2023-05-16T08:24:06.504Z,61.91
2023-05-16T08:25:06.497Z,62.32
2023-05-16T08:26:06.487Z,62.72
2023-05-16T08:27:06.466Z,61.22
2023-05-16T08:28:06.449Z,62.04
2023-05-16T08:29:06.444Z,61.56
2023-05-16T08:30:06.612Z,62.37
2023-05-16T08:31:06.448Z,62.35
2023-05-16T08:32:06.409Z,63.64
2023-05-16T08:33:06.424Z,61.10
2023-05-16T08:34:06.375Z,59.54
2023-05-16T08:35:06.380Z,60.36
2023-05-16T08:36:06.394Z,62.13
2023-05-16T08:37:06.340Z,58.27
2023-05-16T08:38:06.310Z,60.50
2023-05-16T08:39:06.332Z,60.37
2023-05-16T08:40:06.321Z,58.45
2023-05-16T08:41:06.304Z,59.77
2023-05-16T08:42:06.271Z,60.75
2023-05-16T08:43:06.261Z,58.45
2023-05-16T08:44:06.250Z,58.04
2023-05-16T08:45:06.233Z,60.04
2023-05-16T08:46:06.209Z,60.20
2023-05-16T08:47:06.289Z,61.07
2023-05-16T08:48:08.690Z,62.04
2023-05-16T08:49:06.270Z,62.17
2023-05-16T08:50:06.168Z,62.30
2023-05-16T08:51:06.148Z,64.14
2023-05-16T08:52:06.148Z,64.44
2023-05-16T08:53:06.140Z,63.22
2023-05-16T08:54:06.137Z,62.30
2023-05-16T08:55:11.108Z,62.13
2023-05-16T08:56:07.092Z,64.03
2023-05-16T08:57:06.087Z,64.00
2023-05-16T08:58:06.073Z,63.36
2023-05-16T08:59:06.053Z,60.89
2023-05-16T09:00:06.034Z,58.94
2023-05-16T09:01:06.122Z,58.29
2023-05-16T09:02:06.037Z,58.50
2023-05-16T09:03:06.029Z,59.39
2023-05-16T09:04:06.033Z,58.75
2023-05-16T09:05:05.971Z,58.20
2023-05-16T09:06:06.121Z,58.91
2023-05-16T09:07:05.944Z,60.60
2023-05-16T09:08:05.950Z,59.56
2023-05-16T09:09:05.922Z,61.99
2023-05-16T09:10:05.922Z,60.75
2023-05-16T09:11:05.891Z,56.18
2023-05-16T09:12:06.168Z,55.50
2023-05-16T09:13:05.883Z,56.24
2023-05-16T09:14:05.960Z,57.93
2023-05-16T09:15:05.857Z,58.95
2023-05-16T09:16:06.782Z,57.48
2023-05-16T09:17:05.992Z,57.88
2023-05-16T09:18:05.845Z,58.16
2023-05-16T09:19:05.887Z,57.04
2023-05-16T09:20:05.779Z,56.01
2023-05-16T09:21:05.779Z,57.12
2023-05-16T09:22:05.778Z,56.46
2023-05-16T09:23:05.768Z,53.85
2023-05-16T09:24:05.751Z,55.80
2023-05-16T09:25:08.532Z,55.73
2023-05-16T09:26:05.722Z,58.31
2023-05-16T09:27:05.722Z,58.75
2023-05-16T09:28:05.696Z,60.58
2023-05-16T09:29:05.676Z,59.59
2023-05-16T09:30:05.690Z,59.31
2023-05-16T09:31:05.781Z,60.60
2023-05-16T09:32:05.630Z,60.71
2023-05-16T09:33:06.367Z,59.14
2023-05-16T09:34:05.609Z,60.18
2023-05-16T09:35:05.592Z,60.46
2023-05-16T09:36:05.595Z,59.34
2023-05-16T09:37:05.561Z,58.94
2023-05-16T09:38:05.574Z,61.47
2023-05-16T09:39:05.536Z,61.90
2023-05-16T09:40:05.565Z,59.20
2023-05-16T09:41:05.523Z,57.55
2023-05-16T09:42:06.447Z,56.13
2023-05-16T09:43:05.504Z,57.04
2023-05-16T09:44:05.483Z,58.74
2023-05-16T09:45:07.136Z,56.28
2023-05-16T09:46:05.518Z,56.41
2023-05-16T09:47:05.483Z,55.65
2023-05-16T09:48:05.533Z,57.86
2023-05-16T09:49:05.425Z,61.35
2023-05-16T09:50:05.426Z,57.67
2023-05-16T09:51:06.575Z,55.32
2023-05-16T09:52:05.367Z,52.89
2023-05-16T09:53:05.365Z,53.83
2023-05-16T09:54:05.367Z,55.35
2023-05-16T09:55:05.417Z,57.10
2023-05-16T09:56:05.329Z,59.07
2023-05-16T09:57:05.309Z,59.63
2023-05-16T09:58:05.301Z,58.00
2023-05-16T09:59:05.285Z,56.66
2023-05-16T10:00:05.262Z,55.60
2023-05-16T10:01:05.500Z,55.27
2023-05-16T10:02:05.316Z,54.26
2023-05-16T10:03:06.403Z,53.88
2023-05-16T10:04:05.290Z,56.76
2023-05-16T10:05:05.206Z,57.31
2023-05-16T10:06:05.183Z,52.74
2023-05-16T10:07:05.173Z,51.32
2023-05-16T10:08:05.156Z,53.02
2023-05-16T10:09:05.415Z,49.91
2023-05-16T10:10:05.146Z,52.89
2023-05-16T10:11:05.153Z,52.48
2023-05-16T10:12:05.111Z,52.89
2023-05-16T10:13:05.113Z,55.60
2023-05-16T10:14:06.633Z,52.31
2023-05-16T10:15:05.071Z,53.05
2023-05-16T10:16:05.087Z,55.57
2023-05-16T10:17:12.099Z,52.48
2023-05-16T10:18:05.085Z,52.67
2023-05-16T10:19:05.102Z,51.07
2023-05-16T10:20:05.026Z,53.19
2023-05-16T10:21:04.987Z,53.34
2023-05-16T10:22:05.005Z,51.20
2023-05-16T10:23:04.969Z,51.53
2023-05-16T10:24:04.958Z,53.22
2023-05-16T10:25:04.933Z,51.91
2023-05-16T10:26:04.922Z,52.39
2023-05-16T10:27:04.918Z,52.87
2023-05-16T10:28:04.943Z,50.93
2023-05-16T10:29:04.889Z,51.51
2023-05-16T10:30:04.873Z,51.38
2023-05-16T10:31:04.859Z,51.68
2023-05-16T10:32:05.039Z,50.82
2023-05-16T10:33:04.890Z,53.05
2023-05-16T10:34:04.826Z,50.37
2023-05-16T10:35:04.800Z,52.23
2023-05-16T10:36:04.792Z,51.76
2023-05-16T10:37:04.789Z,52.79
2023-05-16T10:38:06.558Z,52.54
2023-05-16T10:39:04.925Z,51.50
2023-05-16T10:40:04.745Z,52.61
2023-05-16T10:41:04.741Z,52.03
2023-05-16T10:42:04.720Z,53.07
2023-05-16T10:43:04.744Z,53.40
2023-05-16T10:44:04.690Z,53.40
2023-05-16T10:45:05.852Z,54.38
2023-05-16T10:46:04.710Z,52.23
2023-05-16T10:47:04.671Z,52.09
2023-05-16T10:48:04.924Z,51.18
2023-05-16T10:49:04.619Z,51.91
2023-05-16T10:50:04.785Z,52.69
2023-05-16T10:51:04.700Z,54.46
2023-05-16T10:52:04.588Z,56.31
2023-05-16T10:53:04.563Z,55.63
2023-05-16T10:54:04.557Z,56.46
2023-05-16T10:55:04.559Z,56.31
2023-05-16T10:56:04.540Z,57.73
2023-05-16T10:57:04.514Z,58.11
2023-05-16T10:58:04.507Z,58.49
2023-05-16T10:59:04.487Z,59.20
2023-05-16T11:00:04.498Z,58.13
2023-05-16T11:01:04.499Z,56.53
2023-05-16T11:02:04.497Z,59.89
2023-05-16T11:03:04.669Z,55.19
2023-05-16T11:04:04.699Z,54.23
2023-05-16T11:05:04.439Z,52.80
2023-05-16T11:06:04.400Z,53.67
2023-05-16T11:07:04.389Z,54.91
2023-05-16T11:08:04.389Z,55.06
2023-05-16T11:09:04.377Z,54.58
2023-05-16T11:10:04.381Z,55.94
2023-05-16T11:11:04.330Z,58.50
2023-05-16T11:12:04.342Z,56.38
2023-05-16T11:13:04.338Z,57.21
2023-05-16T11:14:04.313Z,56.26
2023-05-16T11:15:04.283Z,58.31
2023-05-16T11:16:04.277Z,56.18
2023-05-16T11:17:04.315Z,56.10
2023-05-16T11:18:04.295Z,56.44
2023-05-16T11:19:04.320Z,57.98
2023-05-16T11:20:04.234Z,57.68
2023-05-16T11:21:04.214Z,57.58
2023-05-16T11:22:04.197Z,57.78
2023-05-16T11:23:04.177Z,55.07
2023-05-16T11:24:04.175Z,54.08
2023-05-16T11:25:04.153Z,55.63
2023-05-16T11:26:04.148Z,54.61
2023-05-16T11:27:04.122Z,54.18
2023-05-16T11:28:04.121Z,52.69
2023-05-16T11:29:04.116Z,52.23
2023-05-16T11:30:04.341Z,49.05
2023-05-16T11:31:04.086Z,50.62
2023-05-16T11:32:04.174Z,51.45
2023-05-16T11:33:04.076Z,49.11
2023-05-16T11:34:04.057Z,49.62
2023-05-16T11:35:04.108Z,52.72
2023-05-16T11:36:15.097Z,52.94
2023-05-16T11:37:05.018Z,50.08
2023-05-16T11:38:04.035Z,46.54
2023-05-16T11:39:03.980Z,47.34
2023-05-16T11:40:04.062Z,46.76
2023-05-16T11:41:03.943Z,46.36
2023-05-16T11:42:03.947Z,47.33
2023-05-16T11:43:06.476Z,48.49
2023-05-16T11:44:03.922Z,47.52
2023-05-16T11:45:03.896Z,49.33
2023-05-16T11:46:03.886Z,49.46
2023-05-16T11:47:04.032Z,49.08
2023-05-16T11:48:03.935Z,49.84
2023-05-16T11:49:03.842Z,51.68
2023-05-16T11:50:03.829Z,53.55
2023-05-16T11:51:03.816Z,53.75
2023-05-16T11:52:03.813Z,53.85
2023-05-16T11:53:03.794Z,53.75
2023-05-16T11:55:15.675Z,54.24
2023-05-16T11:56:14.617Z,55.68
2023-05-16T11:57:13.611Z,56.99
2023-05-16T11:58:13.593Z,56.70
2023-05-16T11:59:13.798Z,56.31
2023-05-16T12:00:13.616Z,57.84
2023-05-16T12:01:13.557Z,58.34
2023-05-16T12:02:13.533Z,58.78
2023-05-16T12:03:13.629Z,60.30
2023-05-16T12:04:13.696Z,60.50
2023-05-16T12:05:13.552Z,59.99
2023-05-16T12:06:13.490Z,59.46
2023-05-16T12:07:13.473Z,58.34
2023-05-16T12:08:13.447Z,60.04
2023-05-16T12:09:13.650Z,58.31
2023-05-16T12:10:13.506Z,57.11
2023-05-16T12:11:13.422Z,53.93
2023-05-16T12:12:13.394Z,53.67
2023-05-16T12:13:13.386Z,51.86
2023-05-16T12:14:13.375Z,50.60
2023-05-16T12:15:13.374Z,48.96
2023-05-16T12:16:13.358Z,51.54
2023-05-16T12:17:13.385Z,47.08
2023-05-16T12:18:13.444Z,50.53
2023-05-16T12:19:13.334Z,46.66
2023-05-16T12:20:13.309Z,48.05
2023-05-16T12:21:13.288Z,47.85
2023-05-16T12:22:13.265Z,49.19
2023-05-16T12:23:13.282Z,49.35
2023-05-16T12:24:13.247Z,50.32
2023-05-16T12:25:13.250Z,50.95
2023-05-16T12:26:13.227Z,51.83
2023-05-16T12:27:13.204Z,51.43
2023-05-16T12:28:13.199Z,54.08
2023-05-16T12:29:13.224Z,51.71
2023-05-16T12:30:13.177Z,48.96
2023-05-16T12:31:23.156Z,48.46
2023-05-16T12:32:14.206Z,48.84
2023-05-16T12:33:13.183Z,51.29
2023-05-16T12:34:13.114Z,49.73
2023-05-16T12:35:13.289Z,46.97
2023-05-16T12:36:13.080Z,45.42
2023-05-16T12:37:13.072Z,46.03
2023-05-16T12:38:13.121Z,43.84
2023-05-16T12:39:13.067Z,45.72
2023-05-16T12:40:13.042Z,43.46
2023-05-16T12:41:13.021Z,43.40
2023-05-16T12:42:13.009Z,45.90
2023-05-16T12:43:12.995Z,49.37
2023-05-16T12:44:12.991Z,50.57
2023-05-16T12:45:12.978Z,50.30
2023-05-16T12:46:12.995Z,48.71
2023-05-16T12:47:13.062Z,49.16
2023-05-16T12:48:13.009Z,51.63
2023-05-16T12:49:12.922Z,53.78
2023-05-16T12:50:12.894Z,52.67
2023-05-16T12:51:12.888Z,52.26
2023-05-16T12:52:12.865Z,51.98
2023-05-16T12:53:12.893Z,51.98
2023-05-16T12:54:12.850Z,51.90
2023-05-16T12:55:12.832Z,53.63
2023-05-16T12:56:12.810Z,52.51
2023-05-16T12:57:12.834Z,53.05
2023-05-16T12:58:12.898Z,52.44
2023-05-16T12:59:12.765Z,53.78
2023-05-16T13:00:12.770Z,54.36
2023-05-16T13:01:12.787Z,54.23
2023-05-16T13:02:12.747Z,51.23
2023-05-16T13:03:12.867Z,49.55
2023-05-16T13:04:12.848Z,49.18
2023-05-16T13:05:12.711Z,45.89
2023-05-16T13:06:12.680Z,44.14
2023-05-16T13:07:12.676Z,45.04
2023-05-16T13:08:12.652Z,46.45
2023-05-16T13:09:12.643Z,42.02
2023-05-16T13:10:12.650Z,40.73
2023-05-16T13:11:12.617Z,44.32
2023-05-16T13:12:12.623Z,44.67
2023-05-16T13:13:17.062Z,42.19
2023-05-16T13:14:13.583Z,43.24
2023-05-16T13:15:12.564Z,39.91
2023-05-16T13:16:12.598Z,40.01
2023-05-16T13:17:12.552Z,41.31
2023-05-16T13:18:12.564Z,42.88
2023-05-16T13:19:12.562Z,39.35
2023-05-16T13:20:12.505Z,41.82
2023-05-16T13:21:12.490Z,45.40
2023-05-16T13:22:12.477Z,40.17
2023-05-16T13:23:12.471Z,42.18
2023-05-16T13:24:12.458Z,41.29
2023-05-16T13:25:13.413Z,42.10
2023-05-16T13:26:12.434Z,43.60
2023-05-16T13:27:12.401Z,44.75
2023-05-16T13:28:12.390Z,44.87
2023-05-16T13:29:12.396Z,45.89
2023-05-16T13:30:12.388Z,44.95
2023-05-16T13:31:12.375Z,43.62
2023-05-16T13:32:12.413Z,45.54
2023-05-16T13:33:12.433Z,44.92
2023-05-16T13:34:12.306Z,43.52
2023-05-16T13:35:12.363Z,43.46
2023-05-16T13:36:12.304Z,44.47
2023-05-16T13:37:12.278Z,45.98
2023-05-16T13:38:12.263Z,44.23
2023-05-16T13:39:12.273Z,44.51
2023-05-16T13:40:12.262Z,43.51
2023-05-16T13:41:13.174Z,42.55
2023-05-16T13:42:12.220Z,45.51
2023-05-16T13:43:12.193Z,42.61
2023-05-16T13:44:12.199Z,42.96
2023-05-16T13:45:12.182Z,45.62
2023-05-16T13:46:12.270Z,43.93
2023-05-16T13:47:12.133Z,45.64
2023-05-16T13:48:12.191Z,44.55
2023-05-16T13:49:12.132Z,44.57
2023-05-16T13:50:12.108Z,45.40
2023-05-16T13:51:12.095Z,47.44
2023-05-16T13:52:12.085Z,47.47
2023-05-16T13:53:12.067Z,47.11
2023-05-16T13:54:12.067Z,50.06
2023-05-16T13:55:12.045Z,49.96
2023-05-16T13:56:12.033Z,50.16
2023-05-16T13:57:12.012Z,49.96
2023-05-16T13:58:12.012Z,51.48
2023-05-16T13:59:15.413Z,52.39
2023-05-16T14:00:35.457Z,52.69
2023-05-16T14:01:12.978Z,49.98
2023-05-16T14:02:11.961Z,50.29
2023-05-16T14:03:12.064Z,53.02
2023-05-16T14:04:11.967Z,52.41
2023-05-16T14:05:11.906Z,52.19
2023-05-16T14:06:11.897Z,52.48
2023-05-16T14:07:11.884Z,51.68
2023-05-16T14:08:11.876Z,50.57
2023-05-16T14:09:11.852Z,51.70
2023-05-16T14:10:11.839Z,51.30
2023-05-16T14:11:11.824Z,50.46
2023-05-16T14:12:11.829Z,50.87
2023-05-16T14:13:11.796Z,51.90
2023-05-16T14:14:11.787Z,51.32
2023-05-16T14:15:11.772Z,50.71
2023-05-16T14:16:11.789Z,53.05
2023-05-16T14:17:11.762Z,52.23
2023-05-16T14:18:11.789Z,52.54
2023-05-16T14:19:11.735Z,55.07
2023-05-16T14:20:11.714Z,52.61
2023-05-16T14:21:11.690Z,52.31
2023-05-16T14:22:11.698Z,52.41
2023-05-16T14:23:11.668Z,53.93
2023-05-16T14:24:11.654Z,54.44
2023-05-16T14:25:11.647Z,52.72
2023-05-16T14:26:11.637Z,51.09
2023-05-16T14:27:11.620Z,52.64
2023-05-16T14:28:11.607Z,51.07
2023-05-16T14:29:11.584Z,50.67
2023-05-16T14:30:11.605Z,50.87
2023-05-16T14:31:11.576Z,50.87
2023-05-16T14:32:11.579Z,50.99
2023-05-16T14:33:11.561Z,51.81
2023-05-16T14:34:11.529Z,51.83
2023-05-16T14:35:11.512Z,52.51
2023-05-16T14:36:11.521Z,52.01
2023-05-16T14:37:11.507Z,51.30
2023-05-16T14:38:11.483Z,53.63
2023-05-16T14:39:11.451Z,51.20
2023-05-16T14:40:11.464Z,51.50
2023-05-16T14:41:12.162Z,53.90
2023-05-16T14:42:11.424Z,52.08
2023-05-16T14:43:11.411Z,51.83
2023-05-16T14:44:11.394Z,53.25
2023-05-16T14:45:11.385Z,53.34
2023-05-16T14:46:11.505Z,53.65
2023-05-16T14:47:11.353Z,55.37
2023-05-16T14:48:11.365Z,54.99
2023-05-16T14:49:11.334Z,54.11
2023-05-16T14:50:11.327Z,55.65
2023-05-16T14:51:11.306Z,54.64
2023-05-16T14:52:11.303Z,55.27
2023-05-16T14:53:11.299Z,56.70
2023-05-16T14:54:11.271Z,57.50
2023-05-16T14:55:11.270Z,56.99
2023-05-16T14:56:11.237Z,57.40
2023-05-16T14:57:11.230Z,57.64
2023-05-16T14:58:11.254Z,58.54
2023-05-16T14:59:11.207Z,60.10
2023-05-16T15:00:11.187Z,60.50
2023-05-16T15:01:11.258Z,61.52
2023-05-16T15:02:11.264Z,61.85
2023-05-16T15:03:12.144Z,63.51
2023-05-16T15:04:11.135Z,63.71
2023-05-16T15:05:11.154Z,65.54
2023-05-16T15:06:11.098Z,65.33
2023-05-16T15:07:11.115Z,64.96
2023-05-16T15:08:11.170Z,66.21
2023-05-16T15:09:11.111Z,66.69
2023-05-16T15:10:11.040Z,66.18
2023-05-16T15:11:11.045Z,66.11
2023-05-16T15:12:11.053Z,65.50
2023-05-16T15:13:11.062Z,64.81
2023-05-16T15:14:11.025Z,65.63
2023-05-16T15:15:10.989Z,64.61
2023-05-16T15:16:11.052Z,65.02
2023-05-16T15:17:10.971Z,64.72
2023-05-16T15:18:11.003Z,64.81
2023-05-16T15:19:11.164Z,64.38
2023-05-16T15:20:10.919Z,64.41
2023-05-16T15:21:10.932Z,64.23
2023-05-16T15:22:10.907Z,64.95
2023-05-16T15:23:10.882Z,65.77
2023-05-16T15:24:10.881Z,65.89
2023-05-16T15:25:10.864Z,66.82
2023-05-16T15:26:10.857Z,67.52
2023-05-16T15:27:10.842Z,67.39
2023-05-16T15:28:10.826Z,68.10
2023-05-16T15:29:10.798Z,66.38
2023-05-16T15:30:10.777Z,67.05
2023-05-16T15:31:10.772Z,67.05
2023-05-16T15:32:10.817Z,67.16
2023-05-16T15:33:10.778Z,67.02
2023-05-16T15:34:10.743Z,66.35
2023-05-16T15:35:10.732Z,64.67
2023-05-16T15:36:10.706Z,62.41
2023-05-16T15:37:10.709Z,61.74
2023-05-16T15:38:10.757Z,62.37
2023-05-16T15:39:10.669Z,63.18
2023-05-16T15:40:10.649Z,62.91
2023-05-16T15:41:26.343Z,63.75
2023-05-16T15:42:11.729Z,64.59
2023-05-16T15:43:10.622Z,64.79
2023-05-16T15:44:10.619Z,64.59
2023-05-16T15:45:10.594Z,65.10
2023-05-16T15:46:10.634Z,65.03
2023-05-16T15:47:10.578Z,64.93
2023-05-16T15:48:10.592Z,65.23
2023-05-16T15:49:10.528Z,66.46
2023-05-16T15:50:10.525Z,67.16
2023-05-16T15:51:10.536Z,66.46
2023-05-16T15:52:10.508Z,65.44
2023-05-16T15:53:10.480Z,66.18
2023-05-16T15:54:10.485Z,65.67
2023-05-16T15:55:10.451Z,66.38
2023-05-16T15:56:10.469Z,67.80
2023-05-16T15:57:10.431Z,66.28
2023-05-16T15:58:10.411Z,66.79
2023-05-16T15:59:10.404Z,66.08
2023-05-16T16:00:10.406Z,66.18
2023-05-16T16:01:10.435Z,66.18
2023-05-16T16:02:10.352Z,66.28
2023-05-16T16:03:10.464Z,65.77
2023-05-16T16:04:10.353Z,65.54
2023-05-16T16:05:10.328Z,66.49
2023-05-16T16:06:10.323Z,65.97
2023-05-16T16:07:10.293Z,66.28
2023-05-16T16:08:10.276Z,66.28
2023-05-16T16:09:10.265Z,66.99
2023-05-16T16:10:10.271Z,67.10
2023-05-16T16:11:10.245Z,67.30
2023-05-16T16:12:10.277Z,66.96
2023-05-16T16:13:10.205Z,68.28
2023-05-16T16:14:10.192Z,69.09
2023-05-16T16:15:10.192Z,66.55
2023-05-16T16:16:10.221Z,67.16
2023-05-16T16:17:17.215Z,65.54
2023-05-16T16:18:10.154Z,65.54
2023-05-16T16:19:10.291Z,66.08
2023-05-16T16:20:10.214Z,66.08
2023-05-16T16:21:10.153Z,66.08
2023-05-16T16:22:10.128Z,64.96
2023-05-16T16:23:10.084Z,65.06
2023-05-16T16:24:10.126Z,64.96
2023-05-16T16:25:10.092Z,64.69
2023-05-16T16:26:10.060Z,65.09
2023-05-16T16:27:10.157Z,65.70
2023-05-16T16:28:10.051Z,65.70
2023-05-16T16:29:10.116Z,66.72
2023-05-16T16:30:10.090Z,66.18
2023-05-16T16:31:10.004Z,65.47
2023-05-16T16:32:09.968Z,65.06
2023-05-16T16:33:10.008Z,65.57
2023-05-16T16:34:09.948Z,65.33
2023-05-16T16:35:09.923Z,64.42
2023-05-16T16:36:09.905Z,65.47
2023-05-16T16:37:09.898Z,65.23
2023-05-16T16:38:09.892Z,65.64
2023-05-16T16:39:09.860Z,65.77
2023-05-16T16:40:09.973Z,65.88
2023-05-16T16:41:09.836Z,66.58
2023-05-16T16:42:09.841Z,66.79
2023-05-16T16:43:09.820Z,67.53
2023-05-16T16:44:09.819Z,66.92
2023-05-16T16:45:09.792Z,67.46
2023-05-16T16:46:09.848Z,68.71
2023-05-16T16:47:10.087Z,68.51
2023-05-16T16:48:09.885Z,68.62
2023-05-16T16:49:09.729Z,68.71
2023-05-16T16:50:09.713Z,68.82
2023-05-16T16:51:09.720Z,68.62
2023-05-16T16:52:09.693Z,68.82
2023-05-16T16:53:09.698Z,68.71
2023-05-16T16:54:09.709Z,68.92
2023-05-16T16:55:09.663Z,69.23
2023-05-16T16:56:09.645Z,69.56
2023-05-16T16:57:09.641Z,69.93
2023-05-16T16:58:09.627Z,69.26
2023-05-16T16:59:09.601Z,69.76
2023-05-16T17:00:09.601Z,70.07
2023-05-16T17:01:09.646Z,69.76
2023-05-16T17:02:09.729Z,69.76
2023-05-16T17:03:09.618Z,69.87
2023-05-16T17:04:09.541Z,69.56
2023-05-16T17:05:09.523Z,69.97
2023-05-16T17:06:09.507Z,70.41
2023-05-16T17:07:09.506Z,70.68
2023-05-16T17:08:09.486Z,70.38